createdAt,value
2023-04-18T00:00:24.730Z,95.11
2023-04-18T00:03:16.470Z,94.98
2023-04-18T00:06:04.176Z,95.09
2023-04-18T00:08:50.460Z,95.17
2023-04-18T00:11:36.501Z,95.48
2023-04-18T00:14:23.349Z,95.49
2023-04-18T00:17:09.975Z,95.41
2023-04-18T00:19:58.311Z,95.60
2023-04-18T00:22:46.441Z,95.43
2023-04-18T00:25:33.045Z,95.54
2023-04-18T00:28:19.275Z,95.66
2023-04-18T00:31:05.648Z,95.59
2023-04-18T00:33:52.157Z,95.40
2023-04-18T00:36:38.555Z,95.46
2023-04-18T00:39:26.130Z,95.47
2023-04-18T00:42:13.045Z,95.32
2023-04-18T00:45:00.973Z,95.29
2023-04-18T00:47:47.835Z,95.33
2023-04-18T00:50:36.591Z,95.50
2023-04-18T00:53:23.435Z,95.50
2023-04-18T00:56:10.560Z,95.88
2023-04-18T00:58:57.326Z,95.81
2023-04-18T01:01:44.598Z,96.17
2023-04-18T01:04:32.404Z,96.31
2023-04-18T01:07:18.916Z,96.09
2023-04-18T01:10:05.954Z,96.47
2023-04-18T01:13:19.616Z,96.60
2023-04-18T01:16:06.884Z,96.42
2023-04-18T01:18:53.533Z,96.32
2023-04-18T01:21:43.346Z,96.56
2023-04-18T01:24:32.745Z,96.79
2023-04-18T01:27:19.738Z,96.40
2023-04-18T01:30:07.667Z,96.75
2023-04-18T01:32:54.425Z,97.00
2023-04-18T01:35:40.765Z,96.75
2023-04-18T01:38:27.165Z,97.13
2023-04-18T01:41:15.511Z,97.12
2023-04-18T01:44:02.213Z,97.35
2023-04-18T01:46:48.486Z,97.57
2023-04-18T01:49:35.620Z,97.46
2023-04-18T01:52:25.478Z,97.47
2023-04-18T01:55:12.264Z,98.10
2023-04-18T01:57:58.490Z,97.78
2023-04-18T02:00:45.328Z,98.01
2023-04-18T02:03:32.101Z,98.37
2023-04-18T02:06:18.832Z,98.43
2023-04-18T02:09:08.056Z,98.24
2023-04-18T02:11:58.651Z,98.19
2023-04-18T02:14:45.007Z,98.38
2023-04-18T02:17:31.369Z,98.58
2023-04-18T02:20:17.629Z,98.76
2023-04-18T02:23:03.744Z,98.74
2023-04-18T02:25:50.285Z,98.89
2023-04-18T02:28:38.526Z,99.46
2023-04-18T02:31:25.464Z,99.43
2023-04-18T02:34:12.508Z,99.47
2023-04-18T02:37:00.153Z,99.85
2023-04-18T02:39:47.183Z,99.96
2023-04-18T02:42:33.836Z,100.00
2023-04-18T02:45:21.193Z,100.00
2023-04-18T02:48:07.313Z,100.00
2023-04-18T02:51:02.769Z,100.00
2023-04-18T02:53:54.328Z,100.00
2023-04-18T02:56:42.658Z,100.00
2023-04-18T02:59:35.476Z,100.00
2023-04-18T03:02:49.608Z,100.00
2023-04-18T03:05:46.638Z,100.00
2023-04-18T03:08:34.515Z,100.00
2023-04-18T03:11:21.677Z,100.00
2023-04-18T03:14:08.442Z,100.00
2023-04-18T03:17:01.228Z,100.00
2023-04-18T03:19:51.958Z,100.00
2023-04-18T03:22:43.583Z,100.00
2023-04-18T03:25:31.518Z,100.00
2023-04-18T03:28:20.068Z,100.00
2023-04-18T03:31:06.832Z,100.00
2023-04-18T03:33:54.852Z,100.00
2023-04-18T03:36:41.419Z,100.00
2023-04-18T03:39:28.668Z,100.00
2023-04-18T03:42:16.172Z,100.00
2023-04-18T03:45:03.587Z,100.00
2023-04-18T03:47:51.373Z,100.00
2023-04-18T03:50:39.442Z,100.00
2023-04-18T03:53:32.465Z,100.00
2023-04-18T03:56:19.097Z,100.00
2023-04-18T03:59:12.564Z,100.00
2023-04-18T04:01:59.686Z,100.00
2023-04-18T04:04:46.859Z,100.00
2023-04-18T04:07:34.665Z,100.00
2023-04-18T04:10:21.298Z,100.00
2023-04-18T04:13:08.139Z,100.00
2023-04-18T04:15:56.887Z,100.00
2023-04-18T04:18:43.604Z,100.00
2023-04-18T04:21:32.086Z,100.00
2023-04-18T04:24:19.905Z,100.00
2023-04-18T04:27:07.626Z,100.00
2023-04-18T04:29:57.469Z,100.00
2023-04-18T04:32:45.858Z,100.00
2023-04-18T04:35:34.274Z,100.00
2023-04-18T04:38:25.063Z,100.00
2023-04-18T04:41:14.417Z,100.00
2023-04-18T04:44:01.284Z,100.00
2023-04-18T04:46:56.951Z,100.00
2023-04-18T04:49:48.944Z,100.00
2023-04-18T04:52:35.741Z,100.00
2023-04-18T04:55:22.844Z,100.00
2023-04-18T04:58:11.462Z,100.00
2023-04-18T05:01:16.276Z,100.00
2023-04-18T05:04:04.217Z,100.00
2023-04-18T05:06:51.072Z,100.00
2023-04-18T05:09:38.960Z,100.00
2023-04-18T05:12:27.098Z,99.90
2023-04-18T05:15:15.949Z,99.03
2023-04-18T05:18:03.052Z,98.53
2023-04-18T05:20:49.952Z,98.23
2023-04-18T05:23:37.385Z,98.02
2023-04-18T05:26:25.260Z,97.34
2023-04-18T05:29:13.110Z,96.75
2023-04-18T05:32:01.850Z,95.88
2023-04-18T05:34:48.754Z,95.57
2023-04-18T05:37:35.264Z,95.04
2023-04-18T05:40:21.667Z,94.82
2023-04-18T05:43:08.064Z,93.79
2023-04-18T05:45:58.263Z,92.61
2023-04-18T05:48:45.008Z,89.74
2023-04-18T05:51:31.491Z,87.01
2023-04-18T05:54:21.005Z,82.72
2023-04-18T05:57:07.864Z,78.87
2023-04-18T05:59:55.993Z,74.85
2023-04-18T06:02:42.664Z,71.26
2023-04-18T06:05:29.490Z,66.24
2023-04-18T06:08:16.188Z,63.60
2023-04-18T06:11:03.311Z,61.37
2023-04-18T06:13:49.331Z,57.03
2023-04-18T06:16:37.119Z,54.97
2023-04-18T06:19:23.660Z,51.90
2023-04-18T06:22:10.037Z,51.48
2023-04-18T06:25:00.052Z,48.31
2023-04-18T06:27:46.250Z,47.08
2023-04-18T06:30:32.321Z,45.22
2023-04-18T06:33:19.045Z,43.72
2023-04-18T06:36:06.749Z,41.03
2023-04-18T06:38:53.215Z,40.51
2023-04-18T06:41:39.464Z,38.97
2023-04-18T06:44:25.827Z,37.91
2023-04-18T06:47:13.214Z,37.23
2023-04-18T06:49:59.485Z,36.17
2023-04-18T06:52:45.919Z,35.83
2023-04-18T06:55:32.574Z,34.83
2023-04-18T06:58:18.646Z,33.51
2023-04-18T07:01:04.826Z,33.53
2023-04-18T07:03:51.291Z,33.25
2023-04-18T07:06:37.783Z,32.90
2023-04-18T07:09:24.308Z,32.73
2023-04-18T07:12:10.869Z,32.17
2023-04-18T07:14:58.052Z,31.54
2023-04-18T07:17:44.549Z,29.96
2023-04-18T07:20:31.903Z,30.02
2023-04-18T07:23:18.331Z,29.83
2023-04-18T07:26:05.130Z,28.48
2023-04-18T07:28:51.897Z,28.26
2023-04-18T07:31:37.988Z,27.51
2023-04-18T07:34:29.679Z,26.98
2023-04-18T07:37:17.804Z,27.18
2023-04-18T07:40:06.594Z,26.90
2023-04-18T07:42:53.106Z,27.65
2023-04-18T07:45:42.541Z,28.63
2023-04-18T07:48:28.831Z,29.92
2023-04-18T07:51:18.497Z,31.28
2023-04-18T07:54:05.334Z,32.16
2023-04-18T07:56:52.087Z,33.49
2023-04-18T07:59:38.673Z,34.71
2023-04-18T08:02:25.106Z,36.46
2023-04-18T08:05:12.048Z,37.70
2023-04-18T08:07:58.861Z,38.64
2023-04-18T08:10:45.766Z,39.08
2023-04-18T08:13:33.304Z,37.76
2023-04-18T08:16:20.632Z,36.36
2023-04-18T08:19:07.272Z,35.39
2023-04-18T08:21:53.920Z,33.87
2023-04-18T08:24:46.426Z,31.89
2023-04-18T08:27:38.034Z,31.94
2023-04-18T08:30:26.363Z,32.11
2023-04-18T08:33:12.790Z,31.33
2023-04-18T08:35:59.326Z,31.08
2023-04-18T08:38:46.125Z,30.54
2023-04-18T08:41:39.816Z,30.05
2023-04-18T08:44:30.238Z,29.11
2023-04-18T08:47:16.701Z,28.90
2023-04-18T08:50:06.724Z,28.53
2023-04-18T08:52:54.614Z,27.84
2023-04-18T08:55:41.421Z,27.46
2023-04-18T08:58:31.747Z,27.23
2023-04-18T09:01:17.720Z,27.61
2023-04-18T09:04:05.608Z,28.07
2023-04-18T09:06:52.694Z,28.11
2023-04-18T09:09:54.630Z,28.08
2023-04-18T09:12:52.239Z,28.35
2023-04-18T09:15:38.941Z,28.90
2023-04-18T09:18:26.867Z,29.25
2023-04-18T09:21:21.014Z,27.92
2023-04-18T09:24:23.483Z,28.12
2023-04-18T09:27:13.845Z,28.15
2023-04-18T09:30:00.644Z,27.65
2023-04-18T09:32:59.426Z,26.92
2023-04-18T09:35:46.529Z,26.63
2023-04-18T09:38:40.498Z,26.76
2023-04-18T09:41:27.055Z,26.31
2023-04-18T09:44:16.277Z,27.22
2023-04-18T09:47:02.763Z,28.22
2023-04-18T09:49:49.320Z,28.77
2023-04-18T09:52:41.526Z,29.41
2023-04-18T09:55:28.860Z,30.42
2023-04-18T09:58:18.995Z,31.09
2023-04-18T10:01:06.974Z,31.96
2023-04-18T10:03:55.195Z,33.22
2023-04-18T10:06:44.813Z,33.79
2023-04-18T10:09:32.805Z,34.08
2023-04-18T10:12:19.487Z,34.41
2023-04-18T10:15:10.600Z,33.90
2023-04-18T10:18:05.757Z,33.04
2023-04-18T10:21:00.892Z,32.94
2023-04-18T10:23:48.762Z,33.04
2023-04-18T10:26:49.543Z,33.99
2023-04-18T10:29:53.269Z,34.29
2023-04-18T10:32:39.895Z,34.05
2023-04-18T10:35:26.452Z,34.10
2023-04-18T10:38:16.808Z,34.48
2023-04-18T10:41:29.638Z,35.06
2023-04-18T10:44:19.086Z,35.94
2023-04-18T10:47:28.720Z,36.95
2023-04-18T10:50:16.856Z,38.10
2023-04-18T10:53:03.289Z,39.15
2023-04-18T10:55:54.759Z,39.52
2023-04-18T10:58:43.683Z,39.39
2023-04-18T11:01:32.869Z,39.60
2023-04-18T11:04:19.933Z,39.45
2023-04-18T11:07:07.112Z,39.78
2023-04-18T11:09:56.588Z,40.35
2023-04-18T11:12:43.150Z,41.70
2023-04-18T11:15:30.981Z,42.01
2023-04-18T11:18:18.007Z,42.43
2023-04-18T11:21:05.169Z,42.22
2023-04-18T11:23:51.695Z,42.88
2023-04-18T11:26:38.249Z,43.40
2023-04-18T11:29:24.883Z,44.31
2023-04-18T11:32:13.608Z,44.50
2023-04-18T11:35:00.040Z,44.96
2023-04-18T11:37:46.136Z,45.56
2023-04-18T11:40:32.612Z,46.03
2023-04-18T11:43:24.911Z,46.54
2023-04-18T11:46:12.815Z,46.68
2023-04-18T11:48:59.352Z,47.02
2023-04-18T11:51:46.849Z,47.56
2023-04-18T11:54:41.077Z,48.02
2023-04-18T11:57:29.725Z,48.89
2023-04-18T12:00:17.619Z,49.40
2023-04-18T12:03:11.851Z,50.21
2023-04-18T12:06:00.662Z,51.73
2023-04-18T12:08:47.169Z,52.67
2023-04-18T12:11:34.405Z,54.03
2023-04-18T12:14:21.716Z,55.03
2023-04-18T12:17:08.029Z,55.74
2023-04-18T12:19:54.963Z,56.05
2023-04-18T12:22:42.812Z,55.89
2023-04-18T12:25:30.204Z,55.92
2023-04-18T12:28:19.409Z,55.95
2023-04-18T12:31:08.440Z,56.33
2023-04-18T12:33:55.113Z,57.01
2023-04-18T12:36:42.379Z,57.15
2023-04-18T12:39:28.666Z,58.44
2023-04-18T12:42:15.250Z,58.82
2023-04-18T12:45:07.230Z,59.15
2023-04-18T12:47:53.685Z,59.41
2023-04-18T12:50:40.347Z,59.86
2023-04-18T12:53:26.847Z,60.16
2023-04-18T12:56:13.118Z,60.01
2023-04-18T12:58:59.095Z,60.33
2023-04-18T13:01:45.407Z,60.97
2023-04-18T13:04:31.843Z,61.53
2023-04-18T13:07:18.816Z,61.42
2023-04-18T13:10:07.709Z,61.06
2023-04-18T13:12:55.262Z,60.45
2023-04-18T13:15:41.975Z,60.55
2023-04-18T13:18:28.362Z,59.88
2023-04-18T13:21:14.578Z,60.21
2023-04-18T13:24:01.760Z,60.69
2023-04-18T13:26:47.828Z,61.46
2023-04-18T13:29:34.320Z,62.19
2023-04-18T13:32:20.917Z,62.25
2023-04-18T13:35:08.324Z,62.52
2023-04-18T13:37:54.726Z,63.20
2023-04-18T13:40:40.950Z,64.71
2023-04-18T13:43:27.252Z,66.06
2023-04-18T13:46:13.989Z,67.01
2023-04-18T13:49:01.871Z,68.25
2023-04-18T13:51:49.915Z,68.36
2023-04-18T13:54:37.095Z,69.31
2023-04-18T13:57:23.750Z,69.50
2023-04-18T14:00:13.325Z,69.35
2023-04-18T14:03:00.055Z,69.24
2023-04-18T14:05:46.469Z,68.86
2023-04-18T14:08:32.969Z,68.37
2023-04-18T14:11:20.482Z,67.67
2023-04-18T14:14:09.641Z,67.03
2023-04-18T14:16:58.627Z,66.88
2023-04-18T14:19:44.754Z,67.18
2023-04-18T14:22:31.061Z,66.79
2023-04-18T14:25:17.794Z,66.50
2023-04-18T14:28:12.843Z,66.16
2023-04-18T14:31:01.425Z,66.43
2023-04-18T14:33:49.014Z,66.36
2023-04-18T14:36:35.570Z,66.72
2023-04-18T14:39:21.980Z,66.90
2023-04-18T14:42:08.870Z,66.71
2023-04-18T14:44:57.240Z,66.54
2023-04-18T14:47:46.295Z,65.78
2023-04-18T14:50:33.142Z,65.76
2023-04-18T14:53:19.790Z,65.80
2023-04-18T14:56:07.003Z,66.21
2023-04-18T14:58:55.025Z,66.55
2023-04-18T15:01:41.291Z,66.12
2023-04-18T15:04:27.892Z,65.80
2023-04-18T15:07:14.771Z,66.13
2023-04-18T15:10:00.905Z,65.83
2023-04-18T15:12:50.433Z,65.13
2023-04-18T15:15:39.155Z,62.82
2023-04-18T15:18:25.958Z,62.47
2023-04-18T15:21:12.693Z,61.36
2023-04-18T15:24:00.438Z,60.98
2023-04-18T15:26:47.468Z,60.56
2023-04-18T15:29:33.978Z,58.96
2023-04-18T15:32:21.792Z,57.54
2023-04-18T15:35:11.340Z,56.73
2023-04-18T15:37:58.125Z,55.22
2023-04-18T15:40:45.931Z,52.93
2023-04-18T15:43:35.510Z,51.54
2023-04-18T15:46:22.816Z,50.65
2023-04-18T15:49:09.679Z,50.90
2023-04-18T15:51:56.289Z,50.05
2023-04-18T15:54:43.453Z,50.07
2023-04-18T15:57:30.792Z,50.21
2023-04-18T16:00:19.755Z,50.15
2023-04-18T16:03:09.318Z,50.20
2023-04-18T16:05:55.953Z,51.05
2023-04-18T16:08:42.367Z,51.08
2023-04-18T16:11:29.953Z,52.18
2023-04-18T16:14:19.869Z,52.93
2023-04-18T16:17:06.812Z,54.38
2023-04-18T16:19:54.409Z,55.87
2023-04-18T16:22:41.626Z,57.07
2023-04-18T16:25:30.178Z,58.50
2023-04-18T16:28:16.886Z,59.52
2023-04-18T16:31:06.185Z,60.42
2023-04-18T16:33:52.472Z,60.85
2023-04-18T16:36:42.159Z,61.55
2023-04-18T16:39:29.417Z,62.20
2023-04-18T16:42:17.174Z,63.10
2023-04-18T16:45:04.342Z,64.14
2023-04-18T16:47:50.674Z,64.00
2023-04-18T16:50:37.616Z,64.92
2023-04-18T16:53:24.907Z,65.16
2023-04-18T16:56:11.709Z,65.55
2023-04-18T16:59:03.632Z,66.07
2023-04-18T17:01:50.591Z,67.03
2023-04-18T17:04:39.519Z,67.77
2023-04-18T17:07:27.192Z,68.09
2023-04-18T17:10:13.353Z,69.26
2023-04-18T17:13:02.467Z,70.63
2023-04-18T17:15:49.569Z,70.93
2023-04-18T17:18:38.851Z,72.36
2023-04-18T17:21:26.777Z,73.10
2023-04-18T17:24:14.402Z,73.93
2023-04-18T17:27:03.187Z,74.42
2023-04-18T17:29:51.059Z,74.64
2023-04-18T17:32:44.310Z,75.38
2023-04-18T17:35:30.695Z,75.43
2023-04-18T17:38:17.574Z,76.39
2023-04-18T17:41:05.177Z,77.15
2023-04-18T17:43:57.481Z,77.50
2023-04-18T17:46:45.858Z,78.07
2023-04-18T17:49:36.385Z,78.09
2023-04-18T17:52:22.842Z,78.21
2023-04-18T17:55:12.154Z,78.64
2023-04-18T17:57:58.771Z,78.88
2023-04-18T18:00:45.923Z,78.79
2023-04-18T18:03:32.551Z,79.02
2023-04-18T18:06:19.472Z,78.64
2023-04-18T18:09:07.631Z,78.59
2023-04-18T18:11:58.222Z,78.76
2023-04-18T18:14:46.218Z,78.68
2023-04-18T18:17:32.822Z,78.74
2023-04-18T18:20:19.567Z,78.64
2023-04-18T18:23:06.215Z,78.60
2023-04-18T18:25:53.790Z,78.10
2023-04-18T18:28:43.661Z,78.65
2023-04-18T18:31:31.833Z,78.73
2023-04-18T18:34:21.590Z,78.17
2023-04-18T18:37:10.047Z,78.46
2023-04-18T18:39:59.459Z,78.36
2023-04-18T18:42:54.153Z,78.28
2023-04-18T18:45:40.722Z,77.88
2023-04-18T18:48:27.730Z,77.67
2023-04-18T18:51:18.506Z,77.60
2023-04-18T18:54:09.549Z,77.56
2023-04-18T18:56:56.561Z,77.23
2023-04-18T18:59:43.159Z,76.87
2023-04-18T19:02:35.445Z,76.92
2023-04-18T19:05:24.697Z,76.77
2023-04-18T19:08:12.084Z,76.35
2023-04-18T19:11:00.418Z,76.32
2023-04-18T19:13:53.298Z,76.19
2023-04-18T19:16:39.680Z,76.51
2023-04-18T19:19:27.466Z,76.19
2023-04-18T19:22:14.054Z,76.15
2023-04-18T19:25:01.619Z,76.13
2023-04-18T19:27:49.264Z,76.07
2023-04-18T19:30:36.647Z,76.22
2023-04-18T19:33:25.786Z,76.66
2023-04-18T19:36:16.977Z,76.88
2023-04-18T19:39:03.398Z,77.41
2023-04-18T19:41:50.042Z,77.21
2023-04-18T19:44:36.862Z,77.12
2023-04-18T19:47:25.353Z,77.25
2023-04-18T19:50:12.950Z,77.29
2023-04-18T19:53:00.443Z,77.77
2023-04-18T19:55:47.583Z,77.74
2023-04-18T19:58:44.539Z,77.82
2023-04-18T20:01:31.036Z,77.76
2023-04-18T20:04:17.741Z,77.68
2023-04-18T20:07:06.959Z,78.00
2023-04-18T20:09:53.849Z,78.04
2023-04-18T20:12:41.302Z,78.00
2023-04-18T20:15:30.562Z,78.15
2023-04-18T20:18:17.503Z,78.18
2023-04-18T20:21:07.006Z,78.29
2023-04-18T20:23:54.003Z,78.52
2023-04-18T20:26:45.930Z,78.98
2023-04-18T20:29:32.623Z,78.99
2023-04-18T20:32:19.203Z,79.09
2023-04-18T20:35:06.740Z,79.43
2023-04-18T20:37:54.727Z,79.61
2023-04-18T20:40:45.202Z,79.98
2023-04-18T20:43:35.998Z,79.99
2023-04-18T20:46:22.984Z,80.57
2023-04-18T20:49:09.449Z,81.18
2023-04-18T20:51:57.621Z,81.86
2023-04-18T20:54:44.053Z,81.94
2023-04-18T20:57:31.318Z,82.71
2023-04-18T21:00:18.456Z,83.25
2023-04-18T21:03:06.381Z,83.50
2023-04-18T21:05:54.133Z,83.49
2023-04-18T21:08:40.623Z,83.87
2023-04-18T21:11:29.464Z,84.26
2023-04-18T21:14:16.556Z,84.89
2023-04-18T21:17:03.032Z,85.00
2023-04-18T21:19:49.437Z,85.50
2023-04-18T21:22:38.595Z,85.78
2023-04-18T21:25:25.398Z,86.12
2023-04-18T21:28:12.172Z,86.21
2023-04-18T21:30:58.651Z,86.57
2023-04-18T21:33:45.370Z,86.71
2023-04-18T21:36:32.264Z,87.48
2023-04-18T21:39:19.101Z,87.60
2023-04-18T21:42:05.733Z,88.65
2023-04-18T21:44:54.699Z,88.59
2023-04-18T21:47:40.967Z,88.36
2023-04-18T21:50:28.623Z,88.75
2023-04-18T21:53:16.573Z,88.97
2023-04-18T21:56:02.999Z,89.29
2023-04-18T21:58:49.201Z,89.06
2023-04-18T22:01:37.730Z,89.16
2023-04-18T22:04:25.969Z,89.23
2023-04-18T22:07:15.156Z,89.70
2023-04-18T22:10:03.263Z,89.63
2023-04-18T22:12:55.359Z,89.73
2023-04-18T22:15:45.539Z,90.01
2023-04-18T22:18:33.217Z,90.36
2023-04-18T22:21:22.495Z,89.93
2023-04-18T22:24:09.053Z,90.41
2023-04-18T22:26:55.407Z,90.39
2023-04-18T22:29:42.015Z,90.49
2023-04-18T22:32:30.007Z,90.63
2023-04-18T22:35:16.766Z,90.91
2023-04-18T22:38:03.590Z,91.26
2023-04-18T22:40:50.231Z,91.30
2023-04-18T22:43:36.756Z,90.72
2023-04-18T22:46:24.315Z,91.06
2023-04-18T22:49:10.488Z,91.24
2023-04-18T22:51:58.114Z,91.35
2023-04-18T22:54:45.195Z,91.51
2023-04-18T22:57:32.361Z,91.30
2023-04-18T23:00:18.854Z,91.18
2023-04-18T23:03:08.800Z,91.20
2023-04-18T23:05:56.887Z,91.09
2023-04-18T23:08:43.713Z,91.09
2023-04-18T23:11:30.363Z,90.73
2023-04-18T23:14:16.797Z,90.65
2023-04-18T23:17:03.714Z,90.21
2023-04-18T23:19:50.523Z,89.87
2023-04-18T23:22:38.227Z,89.50
2023-04-18T23:25:25.877Z,89.12
2023-04-18T23:28:13.982Z,88.91
2023-04-18T23:30:59.991Z,88.47
2023-04-18T23:33:47.673Z,87.91
2023-04-18T23:36:34.379Z,87.56
2023-04-18T23:39:21.063Z,87.43
2023-04-18T23:42:07.605Z,87.38
2023-04-18T23:44:54.358Z,87.02
2023-04-18T23:47:40.523Z,86.67
2023-04-18T23:50:26.705Z,86.40
2023-04-18T23:53:13.436Z,85.84
2023-04-18T23:55:59.577Z,85.42
2023-04-18T23:58:46.113Z,85.11
